Time;durP1;ratioP1;P1;durP2;ratioP2;P2;SDS_P1;SDS_P2;PMS_P1;PMS_P2;Temp;Humidity;BMP_temperature;BMP_pressure;BME280_temperature;BME280_humidity;BME280_pressure;Samples;Min_cycle;Max_cycle;Signal;HPM_P1;HPM_P2
2021/10/22 00:00:18;;;;;;;8.07;0.50;;;6.70;99.90;;;;;;5133576;27;20228;-86
2021/10/22 00:02:43;;;;;;;6.70;1.23;;;6.70;99.90;;;;;;5133322;27;20171;-80
2021/10/22 00:05:10;;;;;;;3.63;0.70;;;6.60;99.90;;;;;;5133778;27;20215;-83
2021/10/22 00:07:36;;;;;;;2.00;0.30;;;6.60;99.90;;;;;;5133920;27;20175;-85
2021/10/22 00:10:03;;;;;;;4.50;0.63;;;6.60;99.90;;;;;;5133798;27;20409;-82
2021/10/22 00:12:29;;;;;;;7.73;0.70;;;6.50;99.90;;;;;;5133784;27;20163;-86
2021/10/22 00:14:54;;;;;;;6.60;0.47;;;6.50;99.90;;;;;;5133355;27;20466;-82
2021/10/22 00:17:20;;;;;;;4.43;0.70;;;6.40;99.90;;;;;;5133238;27;20214;-82
2021/10/22 00:19:46;;;;;;;4.60;0.83;;;6.50;99.90;;;;;;5133684;27;20167;-84
2021/10/22 00:22:15;;;;;;;3.97;0.63;;;6.50;99.90;;;;;;5115180;27;21234;-84
2021/10/22 00:24:41;;;;;;;4.40;0.73;;;6.50;99.90;;;;;;5133563;27;20414;-83
2021/10/22 00:27:07;;;;;;;4.23;0.50;;;6.50;99.90;;;;;;5097989;27;20452;-82
2021/10/22 00:29:32;;;;;;;3.97;0.70;;;6.50;99.90;;;;;;5133509;27;20448;-83
2021/10/22 00:31:58;;;;;;;8.37;0.90;;;6.60;99.90;;;;;;5132566;27;20519;-83
2021/10/22 00:34:25;;;;;;;10.43;0.80;;;6.60;99.90;;;;;;5114903;27;20181;-82
2021/10/22 00:36:51;;;;;;;4.30;1.40;;;6.60;99.90;;;;;;5132693;27;20196;-86
2021/10/22 00:39:17;;;;;;;8.70;1.23;;;6.60;99.90;;;;;;5133074;27;20405;-83
2021/10/22 00:41:43;;;;;;;3.00;0.30;;;6.60;99.90;;;;;;5133436;27;20981;-84
2021/10/22 00:44:09;;;;;;;2.80;0.57;;;6.60;99.90;;;;;;5133382;27;20246;-82
2021/10/22 00:46:38;;;;;;;1.80;0.67;;;6.60;99.90;;;;;;5133014;27;20208;-82
2021/10/22 00:49:09;;;;;;;6.03;1.20;;;6.60;99.90;;;;;;5133353;27;20416;-85
2021/10/22 00:51:36;;;;;;;4.60;0.50;;;6.60;99.90;;;;;;5114853;27;20904;-84
2021/10/22 00:54:06;;;;;;;4.73;0.97;;;6.70;99.90;;;;;;5114933;27;20425;-86
2021/10/22 00:56:34;;;;;;;2.00;0.20;;;6.70;99.90;;;;;;5114570;27;20481;-84
2021/10/22 00:59:00;;;;;;;6.20;0.67;;;6.70;99.90;;;;;;5133295;27;20417;-85
2021/10/22 01:01:25;;;;;;;4.80;0.80;;;6.60;99.90;;;;;;5132629;27;20408;-84
2021/10/22 01:03:51;;;;;;;6.37;1.03;;;6.60;99.90;;;;;;5132492;27;20416;-84
2021/10/22 01:06:16;;;;;;;10.70;1.33;;;6.50;99.90;;;;;;5132975;27;20624;-83
2021/10/22 01:08:43;;;;;;;5.00;0.67;;;6.60;99.90;;;;;;5133145;27;20170;-84
2021/10/22 01:11:08;;;;;;;3.97;0.83;;;6.60;99.90;;;;;;5114519;28;20581;-84
2021/10/22 01:13:36;;;;;;;4.40;1.50;;;6.60;99.90;;;;;;5132608;27;20508;-86
2021/10/22 01:16:01;;;;;;;8.10;2.00;;;6.60;99.90;;;;;;5132576;27;20222;-82
2021/10/22 01:18:27;;;;;;;4.20;0.50;;;6.60;99.90;;;;;;5114493;27;20428;-83
2021/10/22 01:21:19;;;;;;;6.30;1.47;;;6.60;99.90;;;;;;5114352;28;20771;-83
2021/10/22 01:23:45;;;;;;;3.80;0.83;;;6.60;99.90;;;;;;5109825;28;20235;-82
2021/10/22 01:26:11;;;;;;;4.47;1.10;;;6.60;99.90;;;;;;5132713;27;20405;-82
2021/10/22 01:28:37;;;;;;;5.17;0.80;;;6.60;99.90;;;;;;5132602;28;21002;-84
2021/10/22 01:31:02;;;;;;;4.10;1.00;;;6.70;99.90;;;;;;5132400;28;20416;-83
2021/10/22 01:33:29;;;;;;;5.00;0.80;;;6.70;99.90;;;;;;5132854;28;20186;-84
2021/10/22 01:35:54;;;;;;;8.63;1.43;;;6.70;99.90;;;;;;5114205;28;20654;-83
2021/10/22 01:38:25;;;;;;;3.77;0.80;;;6.80;99.90;;;;;;5132618;28;20422;-84
2021/10/22 01:40:55;;;;;;;4.13;1.30;;;6.80;99.90;;;;;;5132708;28;20401;-84
2021/10/22 01:43:25;;;;;;;2.83;0.60;;;6.80;99.90;;;;;;5132611;28;20417;-84
2021/10/22 01:45:54;;;;;;;2.50;0.30;;;6.80;99.90;;;;;;5132227;28;20412;-85
2021/10/22 01:48:22;;;;;;;2.00;0.47;;;6.80;99.90;;;;;;5132168;28;20557;-82
2021/10/22 01:50:49;;;;;;;5.00;0.60;;;6.80;99.90;;;;;;5114390;28;20476;-82
2021/10/22 01:53:17;;;;;;;3.70;0.50;;;6.70;99.90;;;;;;5113940;28;20419;-83
2021/10/22 01:55:43;;;;;;;7.53;0.93;;;6.70;99.90;;;;;;5113998;28;20509;-83
2021/10/22 01:58:09;;;;;;;2.43;0.50;;;6.70;99.90;;;;;;5113870;28;20516;-83
2021/10/22 02:00:35;;;;;;;4.03;0.20;;;6.60;99.90;;;;;;5114091;28;20457;-82
2021/10/22 02:03:00;;;;;;;2.00;0.30;;;6.70;99.90;;;;;;5132075;28;20185;-83
2021/10/22 02:05:26;;;;;;;6.03;0.50;;;6.70;99.90;;;;;;5113956;28;20421;-84
2021/10/22 02:07:52;;;;;;;2.60;0.27;;;6.70;99.90;;;;;;5113897;28;20180;-84
2021/10/22 02:10:17;;;;;;;2.50;0.40;;;6.70;99.90;;;;;;5132128;28;20206;-84
2021/10/22 02:12:46;;;;;;;0.77;0.30;;;6.70;99.90;;;;;;5113887;28;20258;-83
2021/10/22 02:15:12;;;;;;;3.10;0.30;;;6.70;99.90;;;;;;5115489;27;20690;-84
2021/10/22 02:17:40;;;;;;;2.77;0.30;;;6.60;99.90;;;;;;5135717;27;20520;-84
2021/10/22 02:20:06;;;;;;;4.00;0.83;;;6.70;99.90;;;;;;5117671;27;20416;-82
2021/10/22 02:22:32;;;;;;;1.90;0.40;;;6.70;99.90;;;;;;5117556;27;20920;-83
2021/10/22 02:24:58;;;;;;;3.77;0.80;;;6.70;99.90;;;;;;5135889;27;20412;-84
2021/10/22 02:27:23;;;;;;;1.30;0.37;;;6.70;99.90;;;;;;5136126;27;20537;-83
2021/10/22 02:29:49;;;;;;;3.50;0.50;;;6.80;99.90;;;;;;5135974;27;20167;-84
2021/10/22 02:32:15;;;;;;;6.43;0.60;;;6.80;99.90;;;;;;5135475;27;20624;-83
2021/10/22 02:34:41;;;;;;;4.47;0.30;;;6.90;99.90;;;;;;5135899;27;20462;-84
2021/10/22 02:37:07;;;;;;;3.43;0.60;;;6.90;99.90;;;;;;5135782;27;20207;-84
2021/10/22 02:39:36;;;;;;;3.87;0.93;;;6.90;99.90;;;;;;5117386;27;20171;-83
2021/10/22 02:42:03;;;;;;;5.10;0.87;;;7.00;99.90;;;;;;5135819;27;20247;-84
2021/10/22 02:44:28;;;;;;;6.03;0.53;;;7.00;99.90;;;;;;5135643;27;20455;-83
2021/10/22 02:46:54;;;;;;;1.30;0.30;;;7.00;99.90;;;;;;5135121;27;20453;-83
2021/10/22 02:49:19;;;;;;;3.53;0.73;;;6.90;99.90;;;;;;5117223;27;20261;-85
2021/10/22 02:51:45;;;;;;;1.73;0.20;;;6.90;99.90;;;;;;5135518;27;20190;-82
2021/10/22 02:54:11;;;;;;;6.23;0.97;;;6.90;99.90;;;;;;5135477;27;20167;-84
2021/10/22 02:56:36;;;;;;;2.87;0.67;;;6.80;99.90;;;;;;5135559;27;20202;-87
2021/10/22 02:59:02;;;;;;;3.33;0.77;;;6.90;99.90;;;;;;5118238;27;20618;-82
2021/10/22 03:01:30;;;;;;;6.67;3.13;;;6.90;99.90;;;;;;5117657;27;20635;-80
2021/10/22 03:03:56;;;;;;;1.50;0.30;;;6.80;99.90;;;;;;5136589;27;20523;-81
2021/10/22 03:06:21;;;;;;;4.03;1.03;;;6.90;99.90;;;;;;5136468;27;20453;-81
2021/10/22 03:08:47;;;;;;;4.00;0.50;;;7.00;99.90;;;;;;5118014;27;20220;-81
2021/10/22 03:11:13;;;;;;;2.40;0.40;;;7.00;99.90;;;;;;5136361;27;20509;-81
2021/10/22 03:13:38;;;;;;;4.90;0.73;;;7.00;99.90;;;;;;5136259;27;20167;-81
2021/10/22 03:16:04;;;;;;;2.10;0.20;;;7.00;99.90;;;;;;5135523;27;20226;-81
2021/10/22 03:18:30;;;;;;;3.27;0.60;;;6.90;99.90;;;;;;5136197;27;20682;-81
2021/10/22 03:20:55;;;;;;;2.57;0.60;;;6.90;99.90;;;;;;5136166;27;20627;-80
2021/10/22 03:23:21;;;;;;;4.13;0.53;;;6.90;99.90;;;;;;5136167;27;20172;-81
2021/10/22 03:25:49;;;;;;;3.60;0.77;;;6.90;99.90;;;;;;5135704;27;20176;-81
2021/10/22 03:28:15;;;;;;;8.87;1.10;;;6.90;99.90;;;;;;5136001;27;20745;-80
2021/10/22 03:30:40;;;;;;;3.13;0.60;;;7.00;99.90;;;;;;5135587;27;20412;-80
2021/10/22 03:33:09;;;;;;;4.00;0.83;;;6.90;99.90;;;;;;5135966;27;20199;-81
2021/10/22 03:35:34;;;;;;;4.77;0.60;;;7.00;99.90;;;;;;5117325;27;20696;-80
2021/10/22 03:38:00;;;;;;;5.00;0.57;;;7.00;99.90;;;;;;5135881;27;20504;-81
2021/10/22 03:40:26;;;;;;;3.47;0.67;;;7.10;99.90;;;;;;5117481;27;20229;-79
2021/10/22 03:42:55;;;;;;;4.10;1.13;;;7.10;99.90;;;;;;5135620;27;20417;-80
2021/10/22 03:45:22;;;;;;;2.30;0.57;;;7.10;99.90;;;;;;5135668;27;20175;-79
2021/10/22 03:47:49;;;;;;;4.23;0.67;;;7.10;99.90;;;;;;5135255;27;20488;-80
2021/10/22 03:50:17;;;;;;;6.90;0.67;;;7.10;99.90;;;;;;5135635;27;20847;-80
2021/10/22 03:52:42;;;;;;;5.30;0.40;;;7.10;99.90;;;;;;5135450;27;20770;-81
2021/10/22 03:55:08;;;;;;;2.67;0.40;;;7.10;99.90;;;;;;5117114;27;20511;-80
2021/10/22 03:57:34;;;;;;;8.67;0.97;;;7.10;99.90;;;;;;5135313;27;20203;-80
2021/10/22 04:00:01;;;;;;;2.10;0.80;;;7.20;99.90;;;;;;5135088;27;20171;-80
2021/10/22 04:02:26;;;;;;;2.83;0.40;;;7.10;99.90;;;;;;5134916;27;20167;-80
2021/10/22 04:04:52;;;;;;;5.70;0.80;;;7.10;99.90;;;;;;5134862;27;20749;-80
2021/10/22 04:07:18;;;;;;;4.53;0.70;;;7.10;99.90;;;;;;5135175;27;20177;-80
2021/10/22 04:09:43;;;;;;;1.80;0.40;;;7.00;99.90;;;;;;5135173;27;20405;-80
2021/10/22 04:12:12;;;;;;;3.40;0.67;;;6.90;99.90;;;;;;5116696;27;20263;-81
2021/10/22 04:14:37;;;;;;;1.97;0.40;;;6.90;99.90;;;;;;5116450;27;20172;-80
2021/10/22 04:17:03;;;;;;;2.20;0.67;;;6.80;99.90;;;;;;5116151;27;20552;-80
2021/10/22 04:19:29;;;;;;;2.60;0.87;;;6.70;99.90;;;;;;5116592;27;20228;-81
2021/10/22 04:21:54;;;;;;;7.87;0.60;;;6.70;99.90;;;;;;5134943;27;20246;-81
2021/10/22 04:24:20;;;;;;;7.90;0.70;;;6.70;99.90;;;;;;5134845;27;20631;-81
2021/10/22 04:26:46;;;;;;;5.10;0.70;;;6.70;99.90;;;;;;5134806;27;20164;-80
2021/10/22 04:29:12;;;;;;;2.80;0.73;;;6.70;99.90;;;;;;5134816;27;20183;-81
2021/10/22 04:31:39;;;;;;;1.50;0.50;;;6.70;99.90;;;;;;5134381;27;20409;-81
2021/10/22 04:34:05;;;;;;;5.53;0.77;;;6.80;99.90;;;;;;5134710;27;20409;-80
2021/10/22 04:36:31;;;;;;;1.50;0.53;;;6.80;99.90;;;;;;5115864;27;20473;-80
2021/10/22 04:41:43;;;;;;;6.80;0.90;;;6.70;99.90;;;;;;5134668;27;20684;-81
2021/10/22 04:44:09;;;;;;;5.70;0.50;;;6.60;99.90;;;;;;5134360;27;20412;-80
2021/10/22 04:46:34;;;;;;;9.10;1.10;;;6.70;99.90;;;;;;5115606;27;20429;-81
2021/10/22 04:49:03;;;;;;;3.73;0.63;;;6.70;99.90;;;;;;5134328;27;20523;-81
2021/10/22 04:51:32;;;;;;;4.43;0.30;;;6.70;99.90;;;;;;5133970;27;20254;-81
2021/10/22 04:53:57;;;;;;;5.23;0.73;;;6.80;99.90;;;;;;5115809;27;20448;-81
2021/10/22 04:56:23;;;;;;;7.27;0.70;;;6.90;99.90;;;;;;5134115;27;20492;-81
2021/10/22 04:58:48;;;;;;;5.27;1.43;;;6.90;99.90;;;;;;5134249;27;20167;-81
2021/10/22 05:01:14;;;;;;;1.47;0.47;;;7.00;99.90;;;;;;5115410;27;20167;-82
2021/10/22 05:03:40;;;;;;;6.93;1.03;;;6.90;99.90;;;;;;5116005;27;20168;-81
2021/10/22 05:06:06;;;;;;;5.23;1.10;;;7.00;99.90;;;;;;5134100;27;20175;-81
2021/10/22 05:08:34;;;;;;;8.10;1.20;;;7.00;99.90;;;;;;5115609;27;20589;-81
2021/10/22 05:11:01;;;;;;;5.00;0.90;;;;;;;;;;5115825;27;20262;-82
2021/10/22 05:13:26;;;;;;;7.90;0.50;;;7.10;99.90;;;;;;5133837;27;20421;-81
2021/10/22 05:15:52;;;;;;;4.87;0.73;;;7.00;99.90;;;;;;5114648;27;20473;-82
2021/10/22 05:18:18;;;;;;;3.17;0.57;;;7.00;99.90;;;;;;5115663;27;20612;-83
2021/10/22 05:20:44;;;;;;;3.07;0.53;;;7.00;99.90;;;;;;5115543;27;20694;-83
2021/10/22 05:23:10;;;;;;;7.33;0.30;;;7.10;99.90;;;;;;5115476;27;20449;-82
2021/10/22 05:25:36;;;;;;;7.20;1.37;;;7.10;99.90;;;;;;5133846;27;20407;-81
2021/10/22 05:28:01;;;;;;;9.00;0.97;;;7.10;99.90;;;;;;5133734;27;20183;-80
2021/10/22 05:30:27;;;;;;;11.90;2.30;;;7.10;99.90;;;;;;5133031;28;20468;-81
2021/10/22 05:32:53;;;;;;;1.90;0.30;;;7.10;99.90;;;;;;5133797;28;20521;-81
2021/10/22 05:35:18;;;;;;;7.47;1.67;;;7.10;99.90;;;;;;5133771;28;20405;-82
2021/10/22 05:37:44;;;;;;;8.60;1.20;;;7.10;99.90;;;;;;5133788;28;20653;-82
2021/10/22 05:40:10;;;;;;;6.40;0.80;;;7.10;99.90;;;;;;5133822;28;20171;-81
2021/10/22 05:42:36;;;;;;;11.17;0.90;;;;;;;;;;5133648;28;20206;-82
2021/10/22 05:45:02;;;;;;;5.30;0.83;;;;;;;;;;5133629;28;20222;-81
2021/10/22 05:47:28;;;;;;;3.67;0.90;;;;;;;;;;5133326;28;20417;-82
2021/10/22 05:49:55;;;;;;;2.10;0.77;;;;;;;;;;5136869;27;20409;-81
2021/10/22 05:52:20;;;;;;;4.77;0.93;;;7.10;99.90;;;;;;5137906;27;20415;-81
2021/10/22 05:54:46;;;;;;;6.73;0.93;;;7.10;99.90;;;;;;5119182;27;20424;-81
2021/10/22 05:57:12;;;;;;;6.40;0.67;;;7.00;99.90;;;;;;5137714;27;20682;-81
2021/10/22 05:59:37;;;;;;;3.60;0.60;;;7.00;99.90;;;;;;5137754;27;20171;-82
2021/10/22 06:02:03;;;;;;;4.13;0.77;;;6.90;99.90;;;;;;5137265;27;20178;-81
2021/10/22 06:04:28;;;;;;;5.33;1.23;;;6.90;99.90;;;;;;5119228;27;20163;-81
2021/10/22 06:06:54;;;;;;;7.13;0.93;;;7.00;99.90;;;;;;5137546;27;20174;-81
2021/10/22 06:09:20;;;;;;;2.40;1.20;;;7.10;99.90;;;;;;5118788;27;20170;-81
2021/10/22 06:11:48;;;;;;;4.90;0.67;;;7.10;99.90;;;;;;5119018;27;20169;-83
2021/10/22 06:14:14;;;;;;;8.20;1.40;;;7.10;99.90;;;;;;5118975;27;20262;-81
2021/10/22 06:16:40;;;;;;;4.33;0.67;;;7.10;99.90;;;;;;5136801;27;20563;-81
2021/10/22 06:19:05;;;;;;;2.67;0.93;;;7.10;99.90;;;;;;5137316;27;20592;-81
2021/10/22 06:21:39;;;;;;;2.93;0.37;;;;;;;;;;5137328;27;20183;-82
2021/10/22 06:24:08;;;;;;;4.63;0.93;;;7.10;99.90;;;;;;5137341;27;20218;-81
2021/10/22 06:26:39;;;;;;;8.80;1.20;;;7.20;99.90;;;;;;5137193;27;20409;-81
2021/10/22 06:29:07;;;;;;;10.10;1.23;;;7.20;99.90;;;;;;5137209;27;20469;-82
2021/10/22 06:31:36;;;;;;;4.47;0.87;;;7.20;99.90;;;;;;5118365;27;20453;-82
2021/10/22 06:34:02;;;;;;;5.40;0.87;;;7.30;99.90;;;;;;5137074;27;20414;-81
2021/10/22 06:36:28;;;;;;;4.13;0.73;;;7.30;99.90;;;;;;5136908;27;20460;-81
2021/10/22 06:38:53;;;;;;;4.93;0.93;;;7.40;99.90;;;;;;5118470;27;20175;-83
2021/10/22 06:41:19;;;;;;;2.60;0.80;;;7.40;99.90;;;;;;5118435;27;20171;-81
2021/10/22 06:43:46;;;;;;;6.00;1.00;;;7.40;99.90;;;;;;5118534;27;20217;-81
2021/10/22 06:46:13;;;;;;;2.83;0.77;;;7.40;99.90;;;;;;5136532;27;20747;-82
2021/10/22 06:48:40;;;;;;;5.23;0.90;;;7.40;99.90;;;;;;5136628;27;20422;-82
2021/10/22 06:51:08;;;;;;;3.57;0.80;;;7.50;99.90;;;;;;5136732;27;20409;-82
2021/10/22 06:53:36;;;;;;;4.93;0.90;;;7.50;99.90;;;;;;5118399;27;20429;-81
2021/10/22 06:56:03;;;;;;;4.63;1.13;;;7.60;99.90;;;;;;5136505;27;20472;-81
2021/10/22 06:58:28;;;;;;;9.13;2.10;;;7.60;99.90;;;;;;5118180;27;20791;-81
2021/10/22 07:00:54;;;;;;;2.83;0.60;;;7.70;99.90;;;;;;5135382;27;20513;-81
2021/10/22 07:03:26;;;;;;;4.20;0.80;;;;;;;;;;5136572;27;20179;-81
2021/10/22 07:08:25;;;;;;;7.60;1.00;;;7.60;99.90;;;;;;5136438;27;20797;-81
2021/10/22 07:10:51;;;;;;;6.60;0.80;;;7.60;99.90;;;;;;5117878;27;20445;-81
2021/10/22 07:13:17;;;;;;;9.70;0.90;;;;;;;;;;5136304;27;20814;-82
2021/10/22 07:15:43;;;;;;;3.53;0.57;;;;;;;;;;5113791;28;20529;-81
2021/10/22 07:18:09;;;;;;;4.93;0.77;;;;;;;;;;5115674;28;20417;-82
2021/10/22 07:20:36;;;;;;;3.40;0.60;;;;;;;;;;5115697;28;20415;-82
2021/10/22 07:23:11;;;;;;;2.57;0.77;;;;;;;;;;5115522;28;20411;-83
2021/10/22 07:25:38;;;;;;;4.07;0.73;;;;;;;;;;5114328;28;20939;-81
2021/10/22 07:28:11;;;;;;;2.87;0.40;;;;;;;;;;5113597;28;20423;-82
2021/10/22 07:30:37;;;;;;;3.10;0.70;;;;;;;;;;5113829;28;20844;-82
2021/10/22 07:33:03;;;;;;;3.37;0.20;;;;;;;;;;5115397;28;20407;-81
2021/10/22 07:35:29;;;;;;;5.17;0.97;;;;;;;;;;5115195;28;20437;-81
2021/10/22 07:37:55;;;;;;;4.47;0.97;;;;;;;;;;5115230;28;20466;-81
2021/10/22 07:40:22;;;;;;;3.00;0.50;;;;;;;;;;5113886;28;20915;-82
2021/10/22 07:42:47;;;;;;;5.60;0.73;;;8.80;99.90;;;;;;5115164;28;20414;-81
2021/10/22 07:45:13;;;;;;;7.23;0.70;;;8.80;99.90;;;;;;5115178;28;20423;-82
2021/10/22 07:47:38;;;;;;;8.07;0.87;;;9.00;99.90;;;;;;5113527;28;20177;-82
2021/10/22 07:50:07;;;;;;;6.33;0.90;;;9.10;99.90;;;;;;5114512;28;20638;-81
2021/10/22 07:52:34;;;;;;;3.90;0.40;;;9.10;99.90;;;;;;5114719;28;20181;-82
2021/10/22 07:55:00;;;;;;;2.00;0.80;;;9.00;99.90;;;;;;5114969;27;20416;-81
2021/10/22 07:57:27;;;;;;;8.63;2.33;;;9.30;99.90;;;;;;5114867;28;20467;-83
2021/10/22 07:59:54;;;;;;;7.20;1.20;;;9.20;99.90;;;;;;5113318;28;20457;-83
2021/10/22 08:02:21;;;;;;;2.60;0.87;;;9.10;99.90;;;;;;5097149;28;20529;-81
2021/10/22 08:04:50;;;;;;;4.20;0.73;;;;;;;;;;5081614;28;20422;-81
2021/10/22 08:07:21;;;;;;;7.10;0.63;;;9.30;99.90;;;;;;5093050;28;20416;-82
2021/10/22 08:09:48;;;;;;;4.63;1.40;;;;;;;;;;5092434;28;20423;-81
2021/10/22 08:12:16;;;;;;;7.40;1.13;;;9.10;99.90;;;;;;5092324;28;20470;-82
2021/10/22 08:14:42;;;;;;;4.20;1.00;;;9.00;99.90;;;;;;5094211;28;20472;-81
2021/10/22 08:17:11;;;;;;;4.47;0.90;;;8.90;99.90;;;;;;5095991;28;20535;-83
2021/10/22 08:19:39;;;;;;;3.37;0.37;;;8.60;99.90;;;;;;5114560;28;20177;-81
2021/10/22 08:24:31;;;;;;;2.63;1.07;;;8.50;99.90;;;;;;5114374;28;20419;-83
2021/10/22 08:27:00;;;;;;;3.13;0.67;;;8.60;99.90;;;;;;5114337;28;20219;-82
2021/10/22 08:29:27;;;;;;;4.97;1.23;;;8.60;99.90;;;;;;5095980;28;20415;-82
2021/10/22 08:31:53;;;;;;;3.73;1.10;;;8.70;99.90;;;;;;5095632;28;20423;-81
2021/10/22 08:34:19;;;;;;;3.23;0.40;;;9.00;99.90;;;;;;5114284;28;20532;-82
2021/10/22 08:36:48;;;;;;;8.73;0.77;;;8.90;99.90;;;;;;5095842;28;20830;-81
2021/10/22 08:39:13;;;;;;;5.83;0.60;;;9.10;99.90;;;;;;5113145;28;20418;-84
2021/10/22 08:41:40;;;;;;;2.90;0.90;;;;;;;;;;5113912;28;20435;-83
2021/10/22 08:44:06;;;;;;;3.13;1.03;;;9.40;99.90;;;;;;5114038;28;20174;-84
2021/10/22 08:46:32;;;;;;;8.47;1.40;;;9.30;99.90;;;;;;5113587;28;20448;-83
2021/10/22 08:48:58;;;;;;;3.20;0.90;;;;;;;;;;5095658;28;20996;-82
2021/10/22 08:51:26;;;;;;;5.90;1.70;;;9.40;99.90;;;;;;5095733;28;20173;-85
2021/10/22 08:53:57;;;;;;;1.20;0.50;;;9.60;99.90;;;;;;5113704;28;20458;-83
2021/10/22 08:56:23;;;;;;;2.83;0.73;;;;;;;;;;5113509;28;20499;-82
2021/10/22 08:58:48;;;;;;;5.97;2.10;;;12.00;99.90;;;;;;5095484;28;20445;-83
2021/10/22 09:01:14;;;;;;;5.77;0.70;;;11.20;99.90;;;;;;5113100;28;20411;-83
2021/10/22 09:03:40;;;;;;;2.97;0.50;;;11.50;99.90;;;;;;5094976;28;20231;-83
2021/10/22 09:06:13;;;;;;;3.07;0.87;;;;;;;;;;5113457;28;20170;-83
2021/10/22 09:08:40;;;;;;;1.87;0.40;;;;;;;;;;5113486;28;20491;-84
2021/10/22 09:11:18;;;;;;;5.07;1.00;;;;;;;;;;5113481;28;20416;-83
2021/10/22 09:13:59;;;;;;;3.33;0.40;;;;;;;;;;5113631;28;20410;-82
2021/10/22 09:16:24;;;;;;;3.57;0.20;;;11.10;99.90;;;;;;5112636;28;20479;-82
2021/10/22 09:18:53;;;;;;;4.40;0.60;;;10.70;99.90;;;;;;5113274;28;20518;-82
2021/10/22 09:21:30;;;;;;;4.87;1.07;;;10.20;99.90;;;;;;5113189;28;20170;-82
2021/10/22 09:24:19;;;;;;;2.50;0.40;;;9.90;99.90;;;;;;5094468;28;20452;-82
2021/10/22 09:26:56;;;;;;;9.00;0.60;;;9.80;99.90;;;;;;5094785;28;20408;-81
2021/10/22 09:29:26;;;;;;;1.20;0.53;;;9.60;99.90;;;;;;5113057;28;20421;-83
2021/10/22 09:31:56;;;;;;;5.43;0.80;;;9.40;99.90;;;;;;5094359;28;20945;-82
2021/10/22 09:34:35;;;;;;;2.97;0.60;;;9.00;99.90;;;;;;5093089;28;20436;-83
2021/10/22 09:37:10;;;;;;;2.73;0.63;;;8.70;99.90;;;;;;5111451;28;20502;-82
2021/10/22 09:39:38;;;;;;;4.57;1.20;;;8.60;99.90;;;;;;5100183;28;20518;-83
2021/10/22 09:42:10;;;;;;;10.17;2.00;;;8.50;99.90;;;;;;5098110;28;20433;-83
2021/10/22 09:44:39;;;;;;;8.10;1.27;;;8.40;99.90;;;;;;5094524;28;20443;-82
2021/10/22 09:47:04;;;;;;;3.90;1.30;;;8.30;99.90;;;;;;5103973;28;20492;-82
2021/10/22 09:49:32;;;;;;;3.40;1.40;;;8.30;99.90;;;;;;5113229;28;20403;-82
2021/10/22 09:52:00;;;;;;;5.03;0.53;;;8.40;99.90;;;;;;5113199;28;20193;-82
2021/10/22 09:54:33;;;;;;;4.80;0.97;;;8.50;99.90;;;;;;5094798;28;20850;-82
2021/10/22 09:57:07;;;;;;;7.93;1.00;;;8.50;99.90;;;;;;5109668;28;20472;-84
2021/10/22 09:59:33;;;;;;;3.50;1.07;;;8.50;99.90;;;;;;5074079;28;20487;-85
2021/10/22 10:02:02;;;;;;;3.23;0.60;;;8.50;99.90;;;;;;5090409;28;20517;-86
2021/10/22 10:04:29;;;;;;;1.47;0.30;;;8.50;99.90;;;;;;5091496;28;20455;-84
2021/10/22 10:06:56;;;;;;;5.37;1.00;;;8.50;99.90;;;;;;5095429;28;20428;-86
2021/10/22 10:09:28;;;;;;;7.07;1.27;;;8.40;99.90;;;;;;5112443;28;20762;-88
2021/10/22 10:12:00;;;;;;;1.43;0.70;;;8.40;99.90;;;;;;5094310;28;20424;-86
2021/10/22 10:14:27;;;;;;;6.40;0.70;;;8.30;99.90;;;;;;5112277;28;20415;-86
2021/10/22 10:16:54;;;;;;;2.57;0.40;;;8.30;99.90;;;;;;5096991;28;20633;-85
2021/10/22 10:19:29;;;;;;;3.70;0.60;;;8.20;99.90;;;;;;5095016;28;20415;-88
2021/10/22 10:22:07;;;;;;;3.00;0.50;;;8.10;99.90;;;;;;5094618;28;20425;-86
2021/10/22 10:24:43;;;;;;;0.57;0.20;;;8.50;99.90;;;;;;5122029;28;20408;-85
2021/10/22 10:27:11;;;;;;;0.83;0.20;;;8.10;99.90;;;;;;5112151;28;20489;-83
2021/10/22 10:29:44;;;;;;;3.00;0.30;;;8.10;99.90;;;;;;5115053;28;20410;-86
2021/10/22 10:32:13;;;;;;;2.27;0.77;;;8.20;99.90;;;;;;5118227;28;20879;-86
2021/10/22 10:34:50;;;;;;;4.03;0.47;;;8.20;99.90;;;;;;5098908;28;20422;-87
2021/10/22 10:37:29;;;;;;;6.00;1.80;;;8.30;99.90;;;;;;5117054;28;20471;-90
2021/10/22 10:40:01;;;;;;;0.57;0.20;;;8.30;99.90;;;;;;5118098;28;20475;-93
2021/10/22 10:42:33;;;;;;;1.17;0.37;;;8.20;99.90;;;;;;5120325;28;20486;-89
2021/10/22 10:45:20;;;;;;;0.80;0.20;;;8.20;99.90;;;;;;5117744;28;20835;-91
2021/10/22 10:47:53;;;;;;;2.97;0.50;;;8.20;99.90;;;;;;5100119;28;20949;-91
2021/10/22 10:50:23;;;;;;;2.27;0.50;;;8.20;99.90;;;;;;5119713;28;20423;-91
2021/10/22 10:52:52;;;;;;;0.73;0.20;;;8.20;99.90;;;;;;5103477;28;20766;-92
2021/10/22 10:55:46;;;;;;;0.93;0.50;;;8.20;99.90;;;;;;5121930;28;20505;-93
2021/10/22 10:58:11;;;;;;;1.17;0.30;;;8.10;99.90;;;;;;5114655;28;20517;-92
2021/10/22 11:00:47;;;;;;;0.43;0.20;;;8.00;99.90;;;;;;5118858;28;20427;-90
2021/10/22 11:03:17;;;;;;;1.77;0.40;;;8.00;99.90;;;;;;5118390;28;20165;-95
2021/10/22 11:05:47;;;;;;;1.50;0.47;;;8.00;99.90;;;;;;5119996;28;20421;-91
2021/10/22 11:08:21;;;;;;;1.83;0.60;;;8.00;99.90;;;;;;5118078;28;20453;-89
2021/10/22 11:13:50;;;;;;;1.97;0.20;;;8.10;99.90;;;;;;5117907;28;20415;-89
2021/10/22 11:16:22;;;;;;;0.83;0.20;;;8.20;99.90;;;;;;5116677;28;20510;-91
2021/10/22 11:19:00;;;;;;;0.50;0.20;;;8.20;99.90;;;;;;5116618;28;20414;-87
2021/10/22 11:21:27;;;;;;;1.20;0.43;;;8.20;99.90;;;;;;5116400;28;20413;-84
2021/10/22 11:23:53;;;;;;;1.70;0.70;;;8.30;99.90;;;;;;5116704;28;20452;-90
2021/10/22 11:26:20;;;;;;;1.70;0.30;;;8.40;99.90;;;;;;5116196;28;20760;-88
2021/10/22 11:28:51;;;;;;;1.57;0.53;;;8.30;99.90;;;;;;5098155;28;20419;-88
2021/10/22 11:31:43;;;;;;;1.07;0.40;;;8.30;99.90;;;;;;5115641;28;20497;-85
2021/10/22 11:34:34;;;;;;;2.50;0.20;;;8.40;99.90;;;;;;5097788;28;20465;-88
2021/10/22 11:37:08;;;;;;;1.17;0.30;;;8.60;99.90;;;;;;5116144;28;21041;-90
2021/10/22 11:39:39;;;;;;;1.00;0.23;;;8.80;99.90;;;;;;5116491;28;20386;-86
2021/10/22 11:42:28;;;;;;;0.73;0.30;;;9.20;99.90;;;;;;5116129;28;20419;-91
2021/10/22 11:45:03;;;;;;;1.07;0.40;;;10.30;99.90;;;;;;5116072;28;20771;-90
2021/10/22 11:47:41;;;;;;;0.77;0.30;;;9.70;99.90;;;;;;5115840;28;20403;-90
2021/10/22 11:50:19;;;;;;;0.30;0.20;;;9.50;99.90;;;;;;5113128;28;20435;-91
2021/10/22 11:52:54;;;;;;;0.30;0.20;;;9.20;99.90;;;;;;5106680;28;20418;-92
2021/10/22 11:55:24;;;;;;;2.50;0.53;;;9.40;99.90;;;;;;5115878;28;20461;-91
2021/10/22 11:57:54;;;;;;;1.60;0.17;;;9.30;99.90;;;;;;5116001;28;20567;-92
2021/10/22 12:00:23;;;;;;;1.80;0.20;;;9.20;99.90;;;;;;5115938;28;20420;-93
2021/10/22 12:02:52;;;;;;;3.67;0.20;;;8.80;99.90;;;;;;5116376;28;20413;-93
2021/10/22 12:05:18;;;;;;;2.00;0.40;;;8.70;99.90;;;;;;5098118;28;20977;-89
2021/10/22 12:07:47;;;;;;;2.80;0.47;;;8.60;99.90;;;;;;5097572;28;20521;-88
2021/10/22 12:10:14;;;;;;;4.03;0.37;;;5.60;99.90;;;;;;5115739;28;20170;-90
2021/10/22 12:12:44;;;;;;;3.70;0.20;;;8.60;99.90;;;;;;5115606;28;20415;-89
2021/10/22 12:15:15;;;;;;;4.47;0.60;;;8.60;99.90;;;;;;5115162;28;20528;-91
2021/10/22 12:17:42;;;;;;;3.40;0.30;;;8.50;99.90;;;;;;5116666;28;20491;-85
2021/10/22 12:20:09;;;;;;;0.97;0.20;;;8.40;99.90;;;;;;5115805;28;20409;-92
2021/10/22 12:22:44;;;;;;;2.80;0.27;;;8.40;99.90;;;;;;5097371;28;20441;-81
2021/10/22 12:25:20;;;;;;;5.13;0.40;;;8.30;99.90;;;;;;5081200;28;20435;-81
2021/10/22 12:27:53;;;;;;;2.00;0.30;;;8.30;99.90;;;;;;5094391;28;20415;-81
2021/10/22 12:30:21;;;;;;;2.10;0.27;;;8.30;99.90;;;;;;5075754;28;20452;-84
2021/10/22 12:32:54;;;;;;;1.03;0.33;;;8.20;99.90;;;;;;5094040;28;20420;-81
2021/10/22 12:35:35;;;;;;;1.57;0.30;;;8.20;99.90;;;;;;5094114;28;20768;-83
2021/10/22 12:38:07;;;;;;;2.93;0.43;;;8.20;99.90;;;;;;5075930;28;20566;-82
2021/10/22 12:40:52;;;;;;;1.90;0.20;;;8.20;99.90;;;;;;5094035;28;20420;-81
2021/10/22 12:43:20;;;;;;;2.03;0.33;;;8.20;99.90;;;;;;5094109;28;20412;-81
2021/10/22 12:45:59;;;;;;;5.60;1.00;;;8.20;99.90;;;;;;5093668;28;20917;-84
2021/10/22 12:48:31;;;;;;;2.23;0.20;;;8.30;99.90;;;;;;5093882;28;20425;-81
2021/10/22 12:51:11;;;;;;;2.63;0.30;;;8.20;99.90;;;;;;5093907;28;20408;-82
2021/10/22 12:53:45;;;;;;;1.60;0.20;;;8.10;99.90;;;;;;5093773;28;20408;-81
2021/10/22 12:56:16;;;;;;;3.00;0.20;;;8.10;99.90;;;;;;5075351;28;20936;-81
2021/10/22 12:59:02;;;;;;;5.97;0.57;;;8.00;99.90;;;;;;5092993;28;20424;-81
2021/10/22 13:01:36;;;;;;;1.87;0.30;;;8.20;99.90;;;;;;5093688;28;20410;-84
2021/10/22 13:04:07;;;;;;;0.53;0.20;;;7.90;99.90;;;;;;5075370;28;20451;-80
2021/10/22 13:12:41;;;;;;;1.17;0.43;;;7.90;99.90;;;;;;5093412;28;20944;-83
2021/10/22 13:15:24;;;;;;;3.90;0.30;;;8.00;99.90;;;;;;5092611;28;20449;-82
2021/10/22 13:22:47;;;;;;;0.60;0.23;;;8.30;99.90;;;;;;5093370;28;20409;-82
2021/10/22 13:25:13;;;;;;;3.57;0.20;;;8.50;99.90;;;;;;5093276;28;20772;-81
2021/10/22 13:27:39;;;;;;;1.47;0.20;;;8.80;99.90;;;;;;5093201;28;20979;-83
2021/10/22 13:30:27;;;;;;;1.23;0.23;;;9.00;99.90;;;;;;5092740;28;20168;-82
2021/10/22 13:32:54;;;;;;;2.73;0.23;;;9.00;99.90;;;;;;5093125;28;20177;-85